Fascination — C6FM9 — position and weather

sailwx.info

Track history (hours):
 
Tides and Currents Weather Stations Pressure Air Temp Water Temp Dewpoint Dewpoint Depression Visibility Wind Speed Wind Dir Waves Ship Positions

Fascination

Operator: Carnival Cruise Lines

Last reported at 2019-Jul-16 02:00 UTC. Time now 2019-Jul-16 02:37 UTC.
Position N 18°10' W 064°46'.

Type: Ship. MMSI: 309682000.

Date/timePositionNaut miles runAvg speedWind from/ knotsBaromVisibWave heightAir tempDewpointWater temp
2019-Jul-16 02:00N 18°10' W 064°46'612.1
2019-Jul-16 01:30N 18°12' W 064°52'611.5
2019-Jul-16 01:00N 18°17' W 064°55'3 5.2
2019-Jul-16 00:30N 18°20' W 064°55'0 0.1
2019-Jul-15 23:59N 18°20' W 064°55'0 0.0
2019-Jul-15 23:29N 18°20' W 064°55'0 0.0
2019-Jul-15 22:59N 18°20' W 064°55'0 0.0
2019-Jul-15 22:29N 18°20' W 064°55'0 0.0
2019-Jul-15 21:58N 18°20' W 064°55'0 0.0
2019-Jul-15 21:28N 18°20' W 064°55'0 0.0
2019-Jul-15 20:58N 18°20' W 064°55'0 0.0
2019-Jul-15 20:28N 18°20' W 064°55'0 0.0
2019-Jul-15 19:58N 18°20' W 064°55'0 0.0
2019-Jul-15 19:27N 18°20' W 064°55'0 0.0
2019-Jul-15 18:45N 18°20' W 064°55'0 0.0
2019-Jul-15 18:27N 18°20' W 064°55'0 0.0
2019-Jul-15 17:51N 18°20' W 064°55'0 0.0
2019-Jul-15 17:14N 18°20' W 064°55'0 0.0
2019-Jul-15 16:56N 18°20' W 064°55'0 0.0
2019-Jul-15 16:26N 18°20' W 064°55'0 0.0
2019-Jul-15 15:32N 18°20' W 064°55'0 0.0
2019-Jul-15 15:20N 18°20' W 064°55'0 0.0
2019-Jul-15 14:55N 18°20' W 064°55'0 0.0
2019-Jul-15 14:13N 18°20' W 064°55'0 0.0
2019-Jul-15 13:49N 18°20' W 064°55'0 0.0
2019-Jul-15 13:25N 18°20' W 064°55'0 0.0
2019-Jul-15 13:01N 18°20' W 064°55'0 0.0
2019-Jul-15 12:24N 18°20' W 064°55'0 0.0
2019-Jul-15 12:00N 18°20' W 064°55'0 0.0
2019-Jul-15 11:30N 18°20' W 064°55'0 0.0
2019-Jul-15 11:00N 18°20' W 064°55'1 1.1
2019-Jul-15 10:30N 18°20' W 064°56'4 7.6
2019-Jul-15 10:00N 18°16' W 064°58'5381.1
2019-Jul-15 10:00N 18°12' W 065°00'611.6 090 / 231012.0 1.1 26.024.6
2019-Jul-15 09:30N 18°17' W 065°03'611.2
2019-Jul-15 09:00N 18°19' W 065°08'3 7.0
2019-Jul-15 08:30N 18°22' W 065°10'5 9.5
2019-Jul-15 07:59N 18°27' W 065°11'5 9.8
2019-Jul-15 07:30N 18°31' W 065°12'1 2.9
2019-Jul-15 07:00N 18°30' W 065°12'61670.9 090 / 221015.010.8 26.023.127.6
2019-Jul-15 06:59N 18°36' W 065°12'510.1
2019-Jul-15 06:30N 18°41' W 065°13'510.4
2019-Jul-15 06:00N 18°46' W 065°14'510.3
2019-Jul-15 05:30N 18°51' W 065°15'510.1
2019-Jul-15 05:00N 18°56' W 065°17'5 9.8
2019-Jul-15 04:30N 18°58' W 065°22'510.5
2019-Jul-15 04:00N 18°58' W 065°28'510.5
2019-Jul-15 03:30N 18°58' W 065°33'510.5
2019-Jul-15 03:00N 18°58' W 065°39'9725.5
2019-Jul-15 03:00N 18°54' W 065°30'1428.7 100 / 231015.010.8 27.022.628.0
2019-Jul-15 02:30N 18°58' W 065°44'610.4
2019-Jul-15 01:56N 18°58' W 065°51'7 9.7
2019-Jul-15 01:12N 18°54' W 065°57'311.1
2019-Jul-15 00:57N 18°52' W 065°58'711.0
2019-Jul-15 00:21N 18°46' W 066°01'410.7
2019-Jul-14 23:58N 18°42' W 066°03'510.3
2019-Jul-14 23:30N 18°38' W 066°05'5 9.8
2019-Jul-14 23:00N 18°33' W 066°08'510.7
2019-Jul-14 22:30N 18°28' W 066°08'1 2.0
2019-Jul-14 21:59N 18°28' W 066°07'0 0.0
2019-Jul-14 21:29N 18°28' W 066°07'0 0.0
2019-Jul-14 20:59N 18°28' W 066°07'0 0.0
2019-Jul-14 20:29N 18°28' W 066°07'0 0.0
2019-Jul-14 19:58N 18°28' W 066°07'0 0.0
2019-Jul-14 19:10N 18°28' W 066°07'0 0.0
2019-Jul-14 18:58N 18°28' W 066°07'0 0.0
2019-Jul-14 18:25N 18°28' W 066°07'0 0.0
2019-Jul-14 17:42N 18°28' W 066°07'0 0.0
2019-Jul-14 17:30N 18°28' W 066°07'0 0.0
2019-Jul-14 16:42N 18°28' W 066°07'0 0.0
2019-Jul-14 16:30N 18°28' W 066°07'0 0.0
2019-Jul-14 16:00N 18°28' W 066°07'0 0.0
2019-Jul-14 15:29N 18°28' W 066°07'0 0.0
2019-Jul-14 14:53N 18°28' W 066°07'0 0.0
2019-Jul-14 14:23N 18°28' W 066°07'0 0.0
2019-Jul-14 13:59N 18°28' W 066°07'0 0.0
2019-Jul-14 13:28N 18°28' W 066°07'0 0.0
2019-Jul-14 12:58N 18°28' W 066°07'0 0.0
2019-Jul-14 12:28N 18°28' W 066°07'0 0.0
2019-Jul-14 11:52N 18°28' W 066°07'0 0.0
2019-Jul-14 11:30N 18°28' W 066°07'0 0.0
2019-Jul-14 10:57N 18°28' W 066°07'0 0.6
2019-Jul-14 10:30N 18°28' W 066°07'4 7.6
2019-Jul-14 10:00N 18°31' W 066°08'7545.7
2019-Jul-14 10:00N 18°30' W 066°00'815.9 110 / 251014.0 1.1 27.025.6
2019-Jul-14 09:29N 18°36' W 066°05'611.3
2019-Jul-14 08:57N 18°42' W 066°02'612.5
2019-Jul-14 08:29N 18°44' W 065°56'714.3
2019-Jul-14 08:00N 18°43' W 065°49'714.2
2019-Jul-14 07:30N 18°42' W 065°41'714.0
2019-Jul-14 07:00N 18°40' W 065°34'6685.5
2019-Jul-14 07:00N 18°36' W 065°30'4 8.9 110 / 201015.010.8 26.023.127.7
2019-Jul-14 06:30N 18°39' W 065°27'816.1
2019-Jul-14 06:01N 18°34' W 065°20'917.4
2019-Jul-14 05:31N 18°28' W 065°14'816.8
2019-Jul-14 05:00N 18°20' W 065°10'816.0
2019-Jul-14 04:31N 18°13' W 065°07'816.8
2019-Jul-14 04:01N 18°10' W 064°58'816.6
2019-Jul-14 03:30N 18°08' W 064°50'816.7
2019-Jul-14 03:01N 18°06' W 064°41'1817.4
2019-Jul-14 02:00N 18°00' W 064°24'9716.1 100 / 201012.010.8 27.022.628.0
2019-Jul-13 20:00N 16°42' W 063°24'16417.2 090 / 181013.0 1.1 27.025.6
2019-Jul-13 10:28N 14°37' W 061°34'815.8
2019-Jul-13 10:00N 14°30' W 061°30'2218.4 100 / 231012.0 1.1 27.025.6
2019-Jul-13 08:47N 14°14' W 061°14'516.9
2019-Jul-13 08:30N 14°13' W 061°09'816.8
2019-Jul-13 08:00N 14°13' W 061°01'917.4
2019-Jul-13 07:31N 14°13' W 060°52'918.3
2019-Jul-13 07:00N 14°12' W 060°42'92 4.4 100 / 161012.010.8 26.023.127.4
2019-Jul-12 10:00N 13°06' W 059°36'3411.4 080 / 801014.0 1.1 28.026.6
2019-Jul-12 07:00N 13°24' W 060°06'50 8.4 080 / 201010.010.8 26.023.127.3
2019-Jul-12 01:03N 13°35' W 060°56'011.9
2019-Jul-12 01:00N 13°35' W 060°56'10702.9
2019-Jul-12 01:00N 13°30' W 060°48'3811.7 070 / 201015.010.8 27.022.625.0
2019-Jul-11 21:46N 14°04' W 061°05'312.7
2019-Jul-11 21:29N 14°03' W 061°02'3 6.3
2019-Jul-11 21:00N 14°01' W 060°60'0 0.0
2019-Jul-11 20:22N 14°01' W 060°60'0 0.0
2019-Jul-11 19:40N 14°01' W 060°60'0 0.0
2019-Jul-11 19:10N 14°01' W 060°60'0 0.0
2019-Jul-11 18:52N 14°01' W 060°60'0 0.0
2019-Jul-11 18:29N 14°01' W 060°60'0 0.0
2019-Jul-11 14:16N 14°01' W 060°60'0 0.0
2019-Jul-11 13:40N 14°01' W 060°60'0 0.0
2019-Jul-11 13:16N 14°01' W 060°60'0 0.0
2019-Jul-11 11:52N 14°01' W 060°60'1 1.4
2019-Jul-11 11:07N 14°01' W 061°00'1 6.1
2019-Jul-11 10:59N 14°02' W 061°01'612.5
2019-Jul-11 10:30N 14°06' W 061°06'714.9
2019-Jul-11 10:00N 14°11' W 061°11'151105.4
2019-Jul-11 10:00N 14°00' W 061°00'4125.6 070 / 191011.0 1.1 27.025.6
2019-Jul-11 08:23N 14°31' W 061°28'716.6
2019-Jul-11 08:00N 14°37' W 061°31'6 5.5
2019-Jul-11 07:00N 14°42' W 061°30'170 8.5 070 / 251015.010.8 26.023.127.4
2019-Jul-10 11:01N 17°16' W 062°45'111.0
2019-Jul-10 10:53N 17°16' W 062°47'7 8.8
2019-Jul-10 10:05N 17°17' W 062°54'882.6
2019-Jul-10 10:00N 17°12' W 062°48'9117.4 100 / 201016.0 1.1 28.026.6
2019-Jul-10 09:55N 17°18' W 062°56'4 9.1
2019-Jul-10 09:30N 17°20' W 062°59'5 9.9
2019-Jul-10 08:57N 17°24' W 063°03'510.5
2019-Jul-10 08:30N 17°28' W 063°06'7 9.3
2019-Jul-10 07:47N 17°34' W 063°07'3 9.3
2019-Jul-10 07:27N 17°37' W 063°07'2 3.9
2019-Jul-10 07:00N 17°36' W 063°06'832.1 100 / 251016.010.8 27.024.127.6
2019-Jul-10 06:44N 17°44' W 063°09'5 9.3
2019-Jul-10 06:14N 17°46' W 063°13'2 9.6
2019-Jul-10 06:00N 17°47' W 063°15'5 9.5
2019-Jul-10 05:27N 17°50' W 063°20'4 9.6
2019-Jul-10 05:00N 17°52' W 063°24'6 9.7
2019-Jul-10 04:23N 17°53' W 063°30'4 9.7
2019-Jul-10 03:59N 17°53' W 063°34'4 9.2
2019-Jul-10 03:30N 17°54' W 063°39'612.3
2019-Jul-10 03:00N 17°48' W 063°36'1525.6 110 / 20 10.8 27.022.628.0
2019-Jul-10 02:25N 18°01' W 063°44'6 9.1
2019-Jul-10 01:48N 18°06' W 063°44'7 7.2
2019-Jul-10 00:53N 18°09' W 063°38'5 9.5
2019-Jul-10 00:24N 18°07' W 063°33'4 9.4
2019-Jul-10 00:00N 18°05' W 063°30'5 9.6
2019-Jul-09 23:30N 18°03' W 063°25'5 9.4
2019-Jul-09 22:57N 18°01' W 063°20'810.4
2019-Jul-09 22:10N 18°01' W 063°11'311.5
2019-Jul-09 21:56N 18°00' W 063°09'510.9
2019-Jul-09 21:29N 18°00' W 063°03'1 0.1
2019-Jul-09 12:46N 18°01' W 063°03'0 0.0
2019-Jul-09 12:07N 18°01' W 063°03'0 0.1
2019-Jul-09 11:38N 18°01' W 063°03'0 1.2
2019-Jul-09 11:27N 18°01' W 063°03'9 6.0
2019-Jul-09 10:00N 18°00' W 063°12'918.3 120 / 181016.0 1.1 27.025.6
2019-Jul-09 09:29N 18°01' W 063°22'5 9.9
2019-Jul-09 09:00N 18°02' W 063°27'6 9.8
2019-Jul-09 08:21N 18°01' W 063°34'4 9.5
2019-Jul-09 07:58N 18°04' W 063°36'4 9.5
2019-Jul-09 07:30N 18°08' W 063°37'5 9.7
2019-Jul-09 07:00N 18°13' W 063°39'6 5.7
2019-Jul-09 06:00N 18°18' W 063°36'8621.4 120 / 211015.010.8 26.023.127.5
2019-Jul-09 02:00N 18°12' W 065°06'3215.9 110 / 201015.010.8 27.024.126.0
2019-Jul-08 23:59N 18°09' W 064°33'510.9
2019-Jul-08 23:30N 18°10' W 064°38'510.7
2019-Jul-08 22:59N 18°10' W 064°44'510.6
2019-Jul-08 22:30N 18°11' W 064°49'510.5
2019-Jul-08 22:00N 18°13' W 064°54'510.1
2019-Jul-08 21:30N 18°18' W 064°55'2 3.4
2019-Jul-08 21:00N 18°20' W 064°55'0 0.0
2019-Jul-08 20:30N 18°20' W 064°55'0 0.0
2019-Jul-08 19:59N 18°20' W 064°55'0 0.0
2019-Jul-08 19:29N 18°20' W 064°55'0 0.0
2019-Jul-08 18:59N 18°20' W 064°55'0 0.0
2019-Jul-08 18:23N 18°20' W 064°55'0 0.0
2019-Jul-08 17:52N 18°20' W 064°55'0 0.0
2019-Jul-08 17:28N 18°20' W 064°55'0 0.0
2019-Jul-08 16:58N 18°20' W 064°55'0 0.0
2019-Jul-08 16:28N 18°20' W 064°55'0 0.0
2019-Jul-08 15:58N 18°20' W 064°55'0 0.0
2019-Jul-08 15:27N 18°20' W 064°55'0 0.0
2019-Jul-08 14:57N 18°20' W 064°55'0 0.0
2019-Jul-08 14:27N 18°20' W 064°55'0 0.0
2019-Jul-08 13:57N 18°20' W 064°55'0 0.0
2019-Jul-08 13:26N 18°20' W 064°55'0 0.0
2019-Jul-08 12:50N 18°20' W 064°55'0 0.0
2019-Jul-08 12:20N 18°20' W 064°55'0 0.0
2019-Jul-08 11:56N 18°20' W 064°55'0 0.0
2019-Jul-08 11:26N 18°20' W 064°55'0 0.0
2019-Jul-08 11:00N 18°20' W 064°55'1 1.1
2019-Jul-08 10:30N 18°20' W 064°56'3 6.9
2019-Jul-08 10:00N 18°16' W 064°57'5 9.8
2019-Jul-08 09:30N 18°17' W 065°02'5 9.5
2019-Jul-08 09:00N 18°19' W 065°07'9653.4
2019-Jul-08 09:00N 18°12' W 065°00'1428.4 080 / 111016.0 1.1 27.025.6
2019-Jul-08 08:30N 18°22' W 065°10'5 9.5
2019-Jul-08 08:00N 18°26' W 065°11'5 9.8
2019-Jul-08 07:30N 18°31' W 065°12'5 9.9
2019-Jul-08 07:00N 18°36' W 065°12'5 9.9
2019-Jul-08 06:30N 18°41' W 065°13'5 9.9
2019-Jul-08 06:00N 18°46' W 065°14'510.0
2019-Jul-08 05:30N 18°51' W 065°15'510.4
2019-Jul-08 05:00N 18°56' W 065°18'5 9.4
2019-Jul-08 04:30N 18°58' W 065°22'510.3
2019-Jul-08 04:00N 18°58' W 065°27'510.6
2019-Jul-08 03:30N 18°58' W 065°33'510.6
2019-Jul-08 03:00N 18°58' W 065°39'4315.5
2019-Jul-08 03:00N 18°54' W 065°36'917.2 090 / 121017.010.8 27.022.625.0
2019-Jul-08 02:29N 18°58' W 065°44'510.4
2019-Jul-08 02:00N 18°58' W 065°50'7 9.3
2019-Jul-08 01:14N 18°55' W 065°57'210.6
2019-Jul-08 01:00N 18°53' W 065°58'810.6
2019-Jul-08 00:17N 18°46' W 066°02'410.5
2019-Jul-07 23:53N 18°43' W 066°04'410.7
2019-Jul-07 23:29N 18°39' W 066°06'610.8
2019-Jul-07 22:59N 18°34' W 066°08'510.9
2019-Jul-07 22:30N 18°29' W 066°08'1 2.7
2019-Jul-07 22:00N 18°28' W 066°07'0 0.0
2019-Jul-07 21:18N 18°28' W 066°07'0 0.0
2019-Jul-07 20:50N 18°28' W 066°07'0 0.0
2019-Jul-07 20:26N 18°28' W 066°07'0 0.0
2019-Jul-07 19:50N 18°28' W 066°07'0 0.0
2019-Jul-07 19:02N 18°28' W 066°07'0 0.0
2019-Jul-07 17:58N 18°28' W 066°07'0 0.0
2019-Jul-07 17:25N 18°28' W 066°07'0 0.0
2019-Jul-07 16:52N 18°28' W 066°07'0 0.0
2019-Jul-07 16:28N 18°28' W 066°07'0 0.0
2019-Jul-07 16:00N 18°28' W 066°07'0 0.0
2019-Jul-07 15:27N 18°28' W 066°07'0 0.0
2019-Jul-07 14:33N 18°28' W 066°07'0 0.0
2019-Jul-07 13:56N 18°28' W 066°07'0 0.0
2019-Jul-07 13:26N 18°28' W 066°07'0 0.0
2019-Jul-07 12:59N 18°28' W 066°07'0 0.0
2019-Jul-07 11:49N 18°28' W 066°07'0 0.0
2019-Jul-07 11:28N 18°28' W 066°07'0 0.0
2019-Jul-07 11:00N 18°28' W 066°07'0 0.2
2019-Jul-07 10:30N 18°28' W 066°07'2 4.9
2019-Jul-07 10:00N 18°30' W 066°08'611.8
2019-Jul-07 09:30N 18°35' W 066°05'815.4
2019-Jul-07 09:00N 18°43' W 066°04'714.3
2019-Jul-07 08:30N 18°44' W 065°56'714.9
2019-Jul-07 08:00N 18°43' W 065°48'714.9
2019-Jul-07 07:30N 18°41' W 065°41'715.0
2019-Jul-07 07:00N 18°40' W 065°33'815.1
2019-Jul-07 06:30N 18°39' W 065°25'816.4
2019-Jul-07 06:00N 18°33' W 065°18'3202.9
2019-Jul-07 06:00N 18°30' W 065°18'612.4 080 / 211016.010.8 27.024.127.4
2019-Jul-07 05:30N 18°27' W 065°13'815.7
2019-Jul-07 05:00N 18°19' W 065°10'713.8
2019-Jul-07 04:30N 18°13' W 065°08'815.7
2019-Jul-07 04:00N 18°11' W 064°60'815.8
2019-Jul-07 03:30N 18°09' W 064°52'815.9
2019-Jul-07 03:00N 18°07' W 064°43'2019.5
2019-Jul-07 02:00N 18°00' W 064°24'51 8.5 070 / 201017.010.8 27.022.627.0
2019-Jul-06 20:00N 17°18' W 063°54'8441.9 060 / 191017.0 1.1 29.026.2
2019-Jul-06 18:00N 16°12' W 063°00'12516.1 060 / 181018.010.8 29.026.227.7
2019-Jul-06 10:15N 14°38' W 061°35'208796.9
2019-Jul-06 10:00N 17°18' W 063°54'217985.8 090 / 191016.0 1.1 28.026.6
2019-Jul-06 09:46N 14°32' W 061°29'618.1
2019-Jul-06 09:27N 14°27' W 061°26'1318.0
2019-Jul-06 08:43N 14°17' W 061°17'417.6
2019-Jul-06 08:29N 14°14' W 061°14'817.4
2019-Jul-06 08:01N 14°13' W 061°05'816.5
2019-Jul-06 07:30N 14°13' W 060°57'816.7
2019-Jul-06 07:00N 14°13' W 060°48'1918.6
2019-Jul-06 06:00N 14°06' W 060°30'   070 / 251017.010.8 26.023.127.3
Track history (hours):
 
Tides and Currents Weather Stations Pressure Air Temp Water Temp Dewpoint Dewpoint Depression Visibility Wind Speed Wind Dir Waves Ship Positions

Fascination

Operator: Carnival Cruise Lines

Last reported at 2019-Jul-16 02:00 UTC. Time now 2019-Jul-16 02:37 UTC.
Position N 18°10' W 064°46'.

Type: Ship. MMSI: 309682000.

Date/timePositionNaut miles runAvg speedWind from/ knotsBaromVisibWave heightAir tempDewpointWater temp
2019-Jul-16 02:00N 18°10' W 064°46'612.1
2019-Jul-16 01:30N 18°12' W 064°52'611.5
2019-Jul-16 01:00N 18°17' W 064°55'3 5.2
2019-Jul-16 00:30N 18°20' W 064°55'0 0.1
2019-Jul-15 23:59N 18°20' W 064°55'0 0.0
2019-Jul-15 23:29N 18°20' W 064°55'0 0.0
2019-Jul-15 22:59N 18°20' W 064°55'0 0.0
2019-Jul-15 22:29N 18°20' W 064°55'0 0.0
2019-Jul-15 21:58N 18°20' W 064°55'0 0.0
2019-Jul-15 21:28N 18°20' W 064°55'0 0.0
2019-Jul-15 20:58N 18°20' W 064°55'0 0.0
2019-Jul-15 20:28N 18°20' W 064°55'0 0.0
2019-Jul-15 19:58N 18°20' W 064°55'0 0.0
2019-Jul-15 19:27N 18°20' W 064°55'0 0.0
2019-Jul-15 18:45N 18°20' W 064°55'0 0.0
2019-Jul-15 18:27N 18°20' W 064°55'0 0.0
2019-Jul-15 17:51N 18°20' W 064°55'0 0.0
2019-Jul-15 17:14N 18°20' W 064°55'0 0.0
2019-Jul-15 16:56N 18°20' W 064°55'0 0.0
2019-Jul-15 16:26N 18°20' W 064°55'0 0.0
2019-Jul-15 15:32N 18°20' W 064°55'0 0.0
2019-Jul-15 15:20N 18°20' W 064°55'0 0.0
2019-Jul-15 14:55N 18°20' W 064°55'0 0.0
2019-Jul-15 14:13N 18°20' W 064°55'0 0.0
2019-Jul-15 13:49N 18°20' W 064°55'0 0.0
2019-Jul-15 13:25N 18°20' W 064°55'0 0.0
2019-Jul-15 13:01N 18°20' W 064°55'0 0.0
2019-Jul-15 12:24N 18°20' W 064°55'0 0.0
2019-Jul-15 12:00N 18°20' W 064°55'0 0.0
2019-Jul-15 11:30N 18°20' W 064°55'0 0.0
2019-Jul-15 11:00N 18°20' W 064°55'1 1.1
2019-Jul-15 10:30N 18°20' W 064°56'4 7.6
2019-Jul-15 10:00N 18°16' W 064°58'5381.1
2019-Jul-15 10:00N 18°12' W 065°00'611.6 090 / 231012.0 1.1 26.024.6
2019-Jul-15 09:30N 18°17' W 065°03'611.2
2019-Jul-15 09:00N 18°19' W 065°08'3 7.0
2019-Jul-15 08:30N 18°22' W 065°10'5 9.5
2019-Jul-15 07:59N 18°27' W 065°11'5 9.8
2019-Jul-15 07:30N 18°31' W 065°12'1 2.9
2019-Jul-15 07:00N 18°30' W 065°12'61670.9 090 / 221015.010.8 26.023.127.6
2019-Jul-15 06:59N 18°36' W 065°12'510.1
2019-Jul-15 06:30N 18°41' W 065°13'510.4
2019-Jul-15 06:00N 18°46' W 065°14'510.3
2019-Jul-15 05:30N 18°51' W 065°15'510.1
2019-Jul-15 05:00N 18°56' W 065°17'5 9.8
2019-Jul-15 04:30N 18°58' W 065°22'510.5
2019-Jul-15 04:00N 18°58' W 065°28'510.5
2019-Jul-15 03:30N 18°58' W 065°33'510.5
2019-Jul-15 03:00N 18°58' W 065°39'9725.5
2019-Jul-15 03:00N 18°54' W 065°30'1428.7 100 / 231015.010.8 27.022.628.0
2019-Jul-15 02:30N 18°58' W 065°44'610.4
2019-Jul-15 01:56N 18°58' W 065°51'7 9.7
2019-Jul-15 01:12N 18°54' W 065°57'311.1
2019-Jul-15 00:57N 18°52' W 065°58'711.0
2019-Jul-15 00:21N 18°46' W 066°01'410.7
2019-Jul-14 23:58N 18°42' W 066°03'510.3
2019-Jul-14 23:30N 18°38' W 066°05'5 9.8
2019-Jul-14 23:00N 18°33' W 066°08'510.7
2019-Jul-14 22:30N 18°28' W 066°08'1 2.0
2019-Jul-14 21:59N 18°28' W 066°07'0 0.0
2019-Jul-14 21:29N 18°28' W 066°07'0 0.0
2019-Jul-14 20:59N 18°28' W 066°07'0 0.0
2019-Jul-14 20:29N 18°28' W 066°07'0 0.0
2019-Jul-14 19:58N 18°28' W 066°07'0 0.0
2019-Jul-14 19:10N 18°28' W 066°07'0 0.0
2019-Jul-14 18:58N 18°28' W 066°07'0 0.0
2019-Jul-14 18:25N 18°28' W 066°07'0 0.0
2019-Jul-14 17:42N 18°28' W 066°07'0 0.0
2019-Jul-14 17:30N 18°28' W 066°07'0 0.0
2019-Jul-14 16:42N 18°28' W 066°07'0 0.0
2019-Jul-14 16:30N 18°28' W 066°07'0 0.0
2019-Jul-14 16:00N 18°28' W 066°07'0 0.0
2019-Jul-14 15:29N 18°28' W 066°07'0 0.0
2019-Jul-14 14:53N 18°28' W 066°07'0 0.0
2019-Jul-14 14:23N 18°28' W 066°07'0 0.0
2019-Jul-14 13:59N 18°28' W 066°07'0 0.0
2019-Jul-14 13:28N 18°28' W 066°07'0 0.0
2019-Jul-14 12:58N 18°28' W 066°07'0 0.0
2019-Jul-14 12:28N 18°28' W 066°07'0 0.0
2019-Jul-14 11:52N 18°28' W 066°07'0 0.0
2019-Jul-14 11:30N 18°28' W 066°07'0 0.0
2019-Jul-14 10:57N 18°28' W 066°07'0 0.6
2019-Jul-14 10:30N 18°28' W 066°07'4 7.6
2019-Jul-14 10:00N 18°31' W 066°08'7545.7
2019-Jul-14 10:00N 18°30' W 066°00'815.9 110 / 251014.0 1.1 27.025.6
2019-Jul-14 09:29N 18°36' W 066°05'611.3
2019-Jul-14 08:57N 18°42' W 066°02'612.5
2019-Jul-14 08:29N 18°44' W 065°56'714.3
2019-Jul-14 08:00N 18°43' W 065°49'714.2
2019-Jul-14 07:30N 18°42' W 065°41'714.0
2019-Jul-14 07:00N 18°40' W 065°34'6685.5
2019-Jul-14 07:00N 18°36' W 065°30'4 8.9 110 / 201015.010.8 26.023.127.7
2019-Jul-14 06:30N 18°39' W 065°27'816.1
2019-Jul-14 06:01N 18°34' W 065°20'917.4
2019-Jul-14 05:31N 18°28' W 065°14'816.8
2019-Jul-14 05:00N 18°20' W 065°10'816.0
2019-Jul-14 04:31N 18°13' W 065°07'816.8
2019-Jul-14 04:01N 18°10' W 064°58'816.6
2019-Jul-14 03:30N 18°08' W 064°50'816.7
2019-Jul-14 03:01N 18°06' W 064°41'1817.4
2019-Jul-14 02:00N 18°00' W 064°24'9716.1 100 / 201012.010.8 27.022.628.0
2019-Jul-13 20:00N 16°42' W 063°24'16417.2 090 / 181013.0 1.1 27.025.6
2019-Jul-13 10:28N 14°37' W 061°34'815.8
2019-Jul-13 10:00N 14°30' W 061°30'2218.4 100 / 231012.0 1.1 27.025.6
2019-Jul-13 08:47N 14°14' W 061°14'516.9
2019-Jul-13 08:30N 14°13' W 061°09'816.8
2019-Jul-13 08:00N 14°13' W 061°01'917.4
2019-Jul-13 07:31N 14°13' W 060°52'918.3
2019-Jul-13 07:00N 14°12' W 060°42'92 4.4 100 / 161012.010.8 26.023.127.4
2019-Jul-12 10:00N 13°06' W 059°36'3411.4 080 / 801014.0 1.1 28.026.6
2019-Jul-12 07:00N 13°24' W 060°06'50 8.4 080 / 201010.010.8 26.023.127.3
2019-Jul-12 01:03N 13°35' W 060°56'011.9
2019-Jul-12 01:00N 13°35' W 060°56'10702.9
2019-Jul-12 01:00N 13°30' W 060°48'3811.7 070 / 201015.010.8 27.022.625.0
2019-Jul-11 21:46N 14°04' W 061°05'312.7
2019-Jul-11 21:29N 14°03' W 061°02'3 6.3
2019-Jul-11 21:00N 14°01' W 060°60'0 0.0
2019-Jul-11 20:22N 14°01' W 060°60'0 0.0
2019-Jul-11 19:40N 14°01' W 060°60'0 0.0
2019-Jul-11 19:10N 14°01' W 060°60'0 0.0
2019-Jul-11 18:52N 14°01' W 060°60'0 0.0
2019-Jul-11 18:29N 14°01' W 060°60'0 0.0
2019-Jul-11 14:16N 14°01' W 060°60'0 0.0
2019-Jul-11 13:40N 14°01' W 060°60'0 0.0
2019-Jul-11 13:16N 14°01' W 060°60'0 0.0
2019-Jul-11 11:52N 14°01' W 060°60'1 1.4
2019-Jul-11 11:07N 14°01' W 061°00'1 6.1
2019-Jul-11 10:59N 14°02' W 061°01'612.5
2019-Jul-11 10:30N 14°06' W 061°06'714.9
2019-Jul-11 10:00N 14°11' W 061°11'151105.4
2019-Jul-11 10:00N 14°00' W 061°00'4125.6 070 / 191011.0 1.1 27.025.6
2019-Jul-11 08:23N 14°31' W 061°28'716.6
2019-Jul-11 08:00N 14°37' W 061°31'6 5.5
2019-Jul-11 07:00N 14°42' W 061°30'170 8.5 070 / 251015.010.8 26.023.127.4
2019-Jul-10 11:01N 17°16' W 062°45'111.0
2019-Jul-10 10:53N 17°16' W 062°47'7 8.8
2019-Jul-10 10:05N 17°17' W 062°54'882.6
2019-Jul-10 10:00N 17°12' W 062°48'9117.4 100 / 201016.0 1.1 28.026.6
2019-Jul-10 09:55N 17°18' W 062°56'4 9.1
2019-Jul-10 09:30N 17°20' W 062°59'5 9.9
2019-Jul-10 08:57N 17°24' W 063°03'510.5
2019-Jul-10 08:30N 17°28' W 063°06'7 9.3
2019-Jul-10 07:47N 17°34' W 063°07'3 9.3
2019-Jul-10 07:27N 17°37' W 063°07'2 3.9
2019-Jul-10 07:00N 17°36' W 063°06'832.1 100 / 251016.010.8 27.024.127.6
2019-Jul-10 06:44N 17°44' W 063°09'5 9.3
2019-Jul-10 06:14N 17°46' W 063°13'2 9.6
2019-Jul-10 06:00N 17°47' W 063°15'5 9.5
2019-Jul-10 05:27N 17°50' W 063°20'4 9.6
2019-Jul-10 05:00N 17°52' W 063°24'6 9.7
2019-Jul-10 04:23N 17°53' W 063°30'4 9.7
2019-Jul-10 03:59N 17°53' W 063°34'4 9.2
2019-Jul-10 03:30N 17°54' W 063°39'612.3
2019-Jul-10 03:00N 17°48' W 063°36'1525.6 110 / 20 10.8 27.022.628.0
2019-Jul-10 02:25N 18°01' W 063°44'6 9.1
2019-Jul-10 01:48N 18°06' W 063°44'7 7.2
2019-Jul-10 00:53N 18°09' W 063°38'5 9.5
2019-Jul-10 00:24N 18°07' W 063°33'4 9.4
2019-Jul-10 00:00N 18°05' W 063°30'5 9.6
2019-Jul-09 23:30N 18°03' W 063°25'5 9.4
2019-Jul-09 22:57N 18°01' W 063°20'810.4
2019-Jul-09 22:10N 18°01' W 063°11'311.5
2019-Jul-09 21:56N 18°00' W 063°09'510.9
2019-Jul-09 21:29N 18°00' W 063°03'1 0.1
2019-Jul-09 12:46N 18°01' W 063°03'0 0.0
2019-Jul-09 12:07N 18°01' W 063°03'0 0.1
2019-Jul-09 11:38N 18°01' W 063°03'0 1.2
2019-Jul-09 11:27N 18°01' W 063°03'9 6.0
2019-Jul-09 10:00N 18°00' W 063°12'918.3 120 / 181016.0 1.1 27.025.6
2019-Jul-09 09:29N 18°01' W 063°22'5 9.9
2019-Jul-09 09:00N 18°02' W 063°27'6 9.8
2019-Jul-09 08:21N 18°01' W 063°34'4 9.5
2019-Jul-09 07:58N 18°04' W 063°36'4 9.5
2019-Jul-09 07:30N 18°08' W 063°37'5 9.7
2019-Jul-09 07:00N 18°13' W 063°39'6 5.7
2019-Jul-09 06:00N 18°18' W 063°36'8621.4 120 / 211015.010.8 26.023.127.5
2019-Jul-09 02:00N 18°12' W 065°06'3215.9 110 / 201015.010.8 27.024.126.0
2019-Jul-08 23:59N 18°09' W 064°33'510.9
2019-Jul-08 23:30N 18°10' W 064°38'510.7
2019-Jul-08 22:59N 18°10' W 064°44'510.6
2019-Jul-08 22:30N 18°11' W 064°49'510.5
2019-Jul-08 22:00N 18°13' W 064°54'510.1
2019-Jul-08 21:30N 18°18' W 064°55'2 3.4
2019-Jul-08 21:00N 18°20' W 064°55'0 0.0
2019-Jul-08 20:30N 18°20' W 064°55'0 0.0
2019-Jul-08 19:59N 18°20' W 064°55'0 0.0
2019-Jul-08 19:29N 18°20' W 064°55'0 0.0
2019-Jul-08 18:59N 18°20' W 064°55'0 0.0
2019-Jul-08 18:23N 18°20' W 064°55'0 0.0
2019-Jul-08 17:52N 18°20' W 064°55'0 0.0
2019-Jul-08 17:28N 18°20' W 064°55'0 0.0
2019-Jul-08 16:58N 18°20' W 064°55'0 0.0
2019-Jul-08 16:28N 18°20' W 064°55'0 0.0
2019-Jul-08 15:58N 18°20' W 064°55'0 0.0
2019-Jul-08 15:27N 18°20' W 064°55'0 0.0
2019-Jul-08 14:57N 18°20' W 064°55'0 0.0
2019-Jul-08 14:27N 18°20' W 064°55'0 0.0
2019-Jul-08 13:57N 18°20' W 064°55'0 0.0
2019-Jul-08 13:26N 18°20' W 064°55'0 0.0
2019-Jul-08 12:50N 18°20' W 064°55'0 0.0
2019-Jul-08 12:20N 18°20' W 064°55'0 0.0
2019-Jul-08 11:56N 18°20' W 064°55'0 0.0
2019-Jul-08 11:26N 18°20' W 064°55'0 0.0
2019-Jul-08 11:00N 18°20' W 064°55'1 1.1
2019-Jul-08 10:30N 18°20' W 064°56'3 6.9
2019-Jul-08 10:00N 18°16' W 064°57'5 9.8
2019-Jul-08 09:30N 18°17' W 065°02'5 9.5
2019-Jul-08 09:00N 18°19' W 065°07'9653.4
2019-Jul-08 09:00N 18°12' W 065°00'1428.4 080 / 111016.0 1.1 27.025.6
2019-Jul-08 08:30N 18°22' W 065°10'5 9.5
2019-Jul-08 08:00N 18°26' W 065°11'5 9.8
2019-Jul-08 07:30N 18°31' W 065°12'5 9.9
2019-Jul-08 07:00N 18°36' W 065°12'5 9.9
2019-Jul-08 06:30N 18°41' W 065°13'5 9.9
2019-Jul-08 06:00N 18°46' W 065°14'510.0
2019-Jul-08 05:30N 18°51' W 065°15'510.4
2019-Jul-08 05:00N 18°56' W 065°18'5 9.4
2019-Jul-08 04:30N 18°58' W 065°22'510.3
2019-Jul-08 04:00N 18°58' W 065°27'510.6
2019-Jul-08 03:30N 18°58' W 065°33'510.6
2019-Jul-08 03:00N 18°58' W 065°39'4315.5
2019-Jul-08 03:00N 18°54' W 065°36'917.2 090 / 121017.010.8 27.022.625.0
2019-Jul-08 02:29N 18°58' W 065°44'510.4
2019-Jul-08 02:00N 18°58' W 065°50'7 9.3
2019-Jul-08 01:14N 18°55' W 065°57'210.6
2019-Jul-08 01:00N 18°53' W 065°58'810.6
2019-Jul-08 00:17N 18°46' W 066°02'410.5
2019-Jul-07 23:53N 18°43' W 066°04'410.7
2019-Jul-07 23:29N 18°39' W 066°06'610.8
2019-Jul-07 22:59N 18°34' W 066°08'510.9
2019-Jul-07 22:30N 18°29' W 066°08'1 2.7
2019-Jul-07 22:00N 18°28' W 066°07'0 0.0
2019-Jul-07 21:18N 18°28' W 066°07'0 0.0
2019-Jul-07 20:50N 18°28' W 066°07'0 0.0
2019-Jul-07 20:26N 18°28' W 066°07'0 0.0
2019-Jul-07 19:50N 18°28' W 066°07'0 0.0
2019-Jul-07 19:02N 18°28' W 066°07'0 0.0
2019-Jul-07 17:58N 18°28' W 066°07'0 0.0
2019-Jul-07 17:25N 18°28' W 066°07'0 0.0
2019-Jul-07 16:52N 18°28' W 066°07'0 0.0
2019-Jul-07 16:28N 18°28' W 066°07'0 0.0
2019-Jul-07 16:00N 18°28' W 066°07'0 0.0
2019-Jul-07 15:27N 18°28' W 066°07'0 0.0
2019-Jul-07 14:33N 18°28' W 066°07'0 0.0
2019-Jul-07 13:56N 18°28' W 066°07'0 0.0
2019-Jul-07 13:26N 18°28' W 066°07'0 0.0
2019-Jul-07 12:59N 18°28' W 066°07'0 0.0
2019-Jul-07 11:49N 18°28' W 066°07'0 0.0
2019-Jul-07 11:28N 18°28' W 066°07'0 0.0
2019-Jul-07 11:00N 18°28' W 066°07'0 0.2
2019-Jul-07 10:30N 18°28' W 066°07'2 4.9
2019-Jul-07 10:00N 18°30' W 066°08'611.8
2019-Jul-07 09:30N 18°35' W 066°05'815.4
2019-Jul-07 09:00N 18°43' W 066°04'714.3
2019-Jul-07 08:30N 18°44' W 065°56'714.9
2019-Jul-07 08:00N 18°43' W 065°48'714.9
2019-Jul-07 07:30N 18°41' W 065°41'715.0
2019-Jul-07 07:00N 18°40' W 065°33'815.1
2019-Jul-07 06:30N 18°39' W 065°25'816.4
2019-Jul-07 06:00N 18°33' W 065°18'3202.9
2019-Jul-07 06:00N 18°30' W 065°18'612.4 080 / 211016.010.8 27.024.127.4
2019-Jul-07 05:30N 18°27' W 065°13'815.7
2019-Jul-07 05:00N 18°19' W 065°10'713.8
2019-Jul-07 04:30N 18°13' W 065°08'815.7
2019-Jul-07 04:00N 18°11' W 064°60'815.8
2019-Jul-07 03:30N 18°09' W 064°52'815.9
2019-Jul-07 03:00N 18°07' W 064°43'2019.5
2019-Jul-07 02:00N 18°00' W 064°24'51 8.5 070 / 201017.010.8 27.022.627.0
2019-Jul-06 20:00N 17°18' W 063°54'8441.9 060 / 191017.0 1.1 29.026.2
2019-Jul-06 18:00N 16°12' W 063°00'12516.1 060 / 181018.010.8 29.026.227.7
2019-Jul-06 10:15N 14°38' W 061°35'208796.9
2019-Jul-06 10:00N 17°18' W 063°54'217985.8 090 / 191016.0 1.1 28.026.6
2019-Jul-06 09:46N 14°32' W 061°29'618.1
2019-Jul-06 09:27N 14°27' W 061°26'1318.0
2019-Jul-06 08:43N 14°17' W 061°17'417.6
2019-Jul-06 08:29N 14°14' W 061°14'817.4
2019-Jul-06 08:01N 14°13' W 061°05'816.5
2019-Jul-06 07:30N 14°13' W 060°57'816.7
2019-Jul-06 07:00N 14°13' W 060°48'1918.6
2019-Jul-06 06:00N 14°06' W 060°30'   070 / 251017.010.8 26.023.127.3

Dump ship's entire track history